createdAt,value
2022-10-02T00:01:18.133Z,7.7
2022-10-02T00:03:19.325Z,4.4
2022-10-02T00:05:20.587Z,4.2
2022-10-02T00:07:21.835Z,5
2022-10-02T00:09:23.092Z,3.9
2022-10-02T00:11:24.340Z,3.5
2022-10-02T00:13:25.607Z,4.9
2022-10-02T00:20:34.882Z,6.1
2022-10-02T00:22:36.157Z,5
2022-10-02T00:24:37.411Z,9.1
2022-10-02T00:28:43.156Z,3.9
2022-10-02T00:30:44.433Z,4.5
2022-10-02T00:32:45.668Z,4
2022-10-02T00:34:46.934Z,6.4
2022-10-02T00:36:48.175Z,4.1
2022-10-02T00:38:49.438Z,6.1
2022-10-02T00:42:55.194Z,4.5
2022-10-02T00:44:56.437Z,3.3
2022-10-02T00:46:57.689Z,3.1
2022-10-02T00:48:58.946Z,1.8
2022-10-02T00:59:08.439Z,2.4
2022-10-02T01:01:09.764Z,3.4
2022-10-02T01:03:10.950Z,2.2
2022-10-02T01:05:12.207Z,2.7
2022-10-02T01:07:13.436Z,2.7
2022-10-02T01:13:20.457Z,2.8
2022-10-02T01:15:21.706Z,2.2
2022-10-02T01:19:51.289Z,2.1
2022-10-02T01:21:52.528Z,2.2
2022-10-02T01:30:00.809Z,2.2
2022-10-02T01:32:02.091Z,2.9
2022-10-02T01:40:10.345Z,1.9
2022-10-02T01:42:11.583Z,2.4
2022-10-02T01:44:12.810Z,2.1
2022-10-02T01:46:14.127Z,2.9
2022-10-02T01:48:15.309Z,3.2
2022-10-02T01:52:21.088Z,2.3
2022-10-02T01:54:22.329Z,2.3
2022-10-02T01:56:23.572Z,2.5
2022-10-02T01:58:24.838Z,2.6
2022-10-02T02:00:26.070Z,2.2
2022-10-02T02:02:27.456Z,2.7
2022-10-02T02:04:28.588Z,4.9
2022-10-02T02:06:33.312Z,3.5
2022-10-02T02:08:34.341Z,4.1
2022-10-02T02:10:35.574Z,3.7
2022-10-02T02:11:37.848Z,3.4
2022-10-02T02:13:39.104Z,4.3
2022-10-02T02:15:40.339Z,3.9
2022-10-02T02:17:41.577Z,4.1
2022-10-02T02:19:46.088Z,4.2
2022-10-02T02:21:47.337Z,3.6
2022-10-02T02:23:48.557Z,4
2022-10-02T02:25:49.801Z,5.9
2022-10-02T02:27:51.087Z,4.5
2022-10-02T02:29:52.301Z,5
2022-10-02T02:31:53.631Z,5.6
2022-10-02T02:33:58.062Z,6.5
2022-10-02T02:38:00.536Z,7.3
2022-10-02T02:40:01.800Z,6.4
2022-10-02T02:42:03.033Z,7.5
2022-10-02T02:44:04.284Z,6.3
2022-10-02T02:50:11.312Z,7.5
2022-10-02T02:52:12.539Z,6.9
2022-10-02T02:54:13.809Z,8.2
2022-10-02T02:56:15.045Z,8.1
2022-10-02T03:00:17.545Z,7
2022-10-02T03:02:22.173Z,8.7
2022-10-02T03:04:23.323Z,8.5
2022-10-02T03:06:24.559Z,10.1
2022-10-02T03:07:26.803Z,8.4
2022-10-02T03:09:28.073Z,8.9
2022-10-02T03:11:29.315Z,8.8
2022-10-02T03:13:30.607Z,9.1
2022-10-02T03:15:35.112Z,10.7
2022-10-02T03:17:36.340Z,9.6
2022-10-02T03:19:37.580Z,11.7
2022-10-02T03:21:38.835Z,11.8
2022-10-02T03:23:40.088Z,10.4
2022-10-02T03:25:41.356Z,9.2
2022-10-02T03:27:42.567Z,10.2
2022-10-02T03:29:47.099Z,10.2
2022-10-02T03:31:48.370Z,12.5
2022-10-02T03:33:49.587Z,11.2
2022-10-02T03:39:53.329Z,12.4
2022-10-02T03:41:54.576Z,11.2
2022-10-02T03:50:02.848Z,12.4
2022-10-02T03:52:04.076Z,11.8
2022-10-02T03:54:05.339Z,11
2022-10-02T03:56:06.595Z,10.6
2022-10-02T03:58:11.134Z,11.7
2022-10-02T04:00:12.411Z,12.3
2022-10-02T04:02:13.640Z,10.5
2022-10-02T04:03:15.970Z,11
2022-10-02T04:05:17.168Z,11
2022-10-02T04:09:21.171Z,10.3
2022-10-02T04:11:25.721Z,11.2
2022-10-02T04:13:26.930Z,12.4
2022-10-02T04:15:28.180Z,9.8
2022-10-02T04:19:30.689Z,8.2
2022-10-02T04:23:33.172Z,11.3
2022-10-02T04:25:37.699Z,10.3
2022-10-02T04:27:38.953Z,9.5
2022-10-02T04:29:40.186Z,17.9
2022-10-02T04:31:41.489Z,9.8
2022-10-02T04:33:42.688Z,9.5
2022-10-02T04:35:43.957Z,10.4
2022-10-02T04:37:45.195Z,9
2022-10-02T04:39:49.768Z,10.5
2022-10-02T04:41:50.958Z,9.7
2022-10-02T04:43:52.225Z,9.4
2022-10-02T04:45:53.608Z,10.8
2022-10-02T04:47:54.700Z,9.5
2022-10-02T04:49:55.959Z,8.2
2022-10-02T04:51:57.215Z,8.6
2022-10-02T04:54:01.740Z,9.9
2022-10-02T04:56:02.969Z,9.7
2022-10-02T04:58:04.221Z,10.8
2022-10-02T05:00:32.680Z,9.5
2022-10-02T05:02:33.812Z,8.9
2022-10-02T05:04:35.091Z,10.2
2022-10-02T05:06:39.578Z,9.7
2022-10-02T05:08:40.834Z,10.7
2022-10-02T05:10:42.089Z,8.2
2022-10-02T05:12:43.314Z,10.2
2022-10-02T05:14:44.563Z,8.7
2022-10-02T05:16:45.857Z,10.3
2022-10-02T05:18:47.062Z,9.1
2022-10-02T05:20:51.576Z,11.2
2022-10-02T05:24:54.046Z,8.3
2022-10-02T05:26:55.312Z,9.7
2022-10-02T05:28:56.546Z,10.1
2022-10-02T05:30:57.854Z,8.9
2022-10-02T05:32:59.037Z,8.7
2022-10-02T05:35:03.570Z,10.1
2022-10-02T05:37:04.821Z,9.4
2022-10-02T05:39:06.057Z,10.6
2022-10-02T05:41:07.319Z,7.7
2022-10-02T05:43:08.575Z,7.2
2022-10-02T05:45:09.808Z,9.5
2022-10-02T05:47:11.080Z,7.7
2022-10-02T05:49:15.568Z,10.5
2022-10-02T05:51:16.818Z,7.3
2022-10-02T05:54:20.318Z,9.2
2022-10-02T05:56:21.603Z,8.1
2022-10-02T05:58:22.841Z,9.5
2022-10-02T06:00:24.331Z,7.8
2022-10-02T06:02:28.672Z,7.9
2022-10-02T06:04:29.847Z,7.5
2022-10-02T06:06:31.103Z,8.5
2022-10-02T06:08:32.333Z,6.9
2022-10-02T06:10:33.614Z,7.5
2022-10-02T06:12:34.821Z,7.2
2022-10-02T06:14:36.083Z,7.7
2022-10-02T06:20:43.087Z,8.1
2022-10-02T06:22:44.353Z,9.2
2022-10-02T06:24:45.581Z,9.9
2022-10-02T06:26:46.826Z,10.6
2022-10-02T06:28:48.090Z,13.1
2022-10-02T06:30:52.599Z,9.7
2022-10-02T06:32:53.844Z,7.8
2022-10-02T06:34:55.115Z,8.6
2022-10-02T06:36:56.344Z,8.7
2022-10-02T06:38:57.597Z,10.1
2022-10-02T06:40:58.836Z,8.1
2022-10-02T06:45:04.605Z,9.8
2022-10-02T06:47:05.826Z,10.1
2022-10-02T06:50:09.358Z,9
2022-10-02T06:52:10.617Z,10.5
2022-10-02T06:54:11.880Z,8.1
2022-10-02T06:56:13.111Z,8.7
2022-10-02T06:58:17.630Z,8.2
2022-10-02T07:00:18.857Z,11.7
2022-10-02T07:02:20.175Z,9.5
2022-10-02T07:04:21.356Z,8.6
2022-10-02T07:06:22.603Z,8.6
2022-10-02T07:08:23.872Z,8.1
2022-10-02T07:12:29.639Z,6.6
2022-10-02T07:14:30.895Z,8.7
2022-10-02T07:16:32.322Z,6.7
2022-10-02T07:18:33.396Z,6
2022-10-02T07:20:34.640Z,5.5
2022-10-02T07:22:45.062Z,9.4
2022-10-02T07:24:37.141Z,6.2
2022-10-02T07:26:41.675Z,6.4
2022-10-02T07:28:42.961Z,7.2
2022-10-02T07:30:44.194Z,5.3
2022-10-02T07:34:46.702Z,5.3
2022-10-02T07:36:47.963Z,6.5
2022-10-02T07:38:49.223Z,5.7
2022-10-02T07:40:56.936Z,5.4
2022-10-02T07:42:54.985Z,5.6
2022-10-02T07:44:56.252Z,4.9
2022-10-02T07:45:58.533Z,8.5
2022-10-02T07:50:01.000Z,5.1
2022-10-02T07:52:02.288Z,7.1
2022-10-02T07:54:06.796Z,6.2
2022-10-02T07:56:08.029Z,5.6
2022-10-02T07:58:09.304Z,6.2
2022-10-02T08:00:10.562Z,7.1
2022-10-02T08:04:13.075Z,7.3
2022-10-02T08:06:14.338Z,7.4
2022-10-02T08:16:23.902Z,7.6
2022-10-02T08:26:35.575Z,13.2
2022-10-02T08:28:34.453Z,11.6
2022-10-02T08:30:35.608Z,21.6
2022-10-02T08:32:36.757Z,9.5
2022-10-02T08:34:37.883Z,4.9
2022-10-02T08:38:43.378Z,13.2
2022-10-02T08:40:44.508Z,14.3
2022-10-02T08:45:13.856Z,5.4
2022-10-02T08:47:14.980Z,6.7
2022-10-02T08:49:19.299Z,7.3
2022-10-02T08:51:20.443Z,7.5
2022-10-02T08:53:21.587Z,8.8
2022-10-02T08:57:23.861Z,6.3
2022-10-02T08:59:24.997Z,2.8
2022-10-02T09:01:26.354Z,4.8
2022-10-02T09:03:30.426Z,6.5
2022-10-02T09:05:31.566Z,3
2022-10-02T09:07:32.685Z,2
2022-10-02T09:09:33.819Z,2.7
2022-10-02T09:11:34.930Z,3.1
2022-10-02T09:13:36.072Z,2.4
2022-10-02T09:15:37.208Z,2.3
2022-10-02T09:17:41.558Z,2.8
2022-10-02T09:19:42.652Z,3.5
2022-10-02T09:21:43.802Z,3.1
2022-10-02T09:23:44.921Z,3.6
2022-10-02T09:25:46.150Z,3.3
2022-10-02T09:27:47.260Z,5.3
2022-10-02T09:29:48.308Z,8.3
2022-10-02T09:31:52.621Z,18.8
2022-10-02T09:33:53.678Z,19.1
2022-10-02T09:35:54.779Z,29.6
2022-10-02T09:40:59.166Z,3.9
2022-10-02T09:45:04.579Z,3.2
2022-10-02T09:47:05.685Z,3.2
2022-10-02T09:49:06.796Z,2.7
2022-10-02T09:51:07.907Z,2.6
2022-10-02T09:53:09.022Z,2.8
2022-10-02T09:55:10.139Z,2.5
2022-10-02T09:57:12.772Z,2.8
2022-10-02T09:59:17.029Z,2.5
2022-10-02T10:01:18.205Z,3.2
2022-10-02T10:03:19.266Z,34.8
2022-10-02T10:05:20.358Z,55
2022-10-02T10:07:21.451Z,36.7
2022-10-02T10:09:22.559Z,5.2
2022-10-02T10:11:23.674Z,3.5
2022-10-02T10:13:27.970Z,2.3
2022-10-02T10:15:29.078Z,2.9
2022-10-02T10:17:30.181Z,2.4
2022-10-02T10:19:31.259Z,2.8
2022-10-02T10:21:32.359Z,3.2
2022-10-02T10:23:33.472Z,8.3
2022-10-02T10:25:34.571Z,4.9
2022-10-02T10:27:38.863Z,19.9
2022-10-02T10:29:39.981Z,2.5
2022-10-02T10:31:41.399Z,2.6
2022-10-02T10:32:43.182Z,4.4
2022-10-02T10:34:44.262Z,3.1
2022-10-02T10:36:46.809Z,3.2
2022-10-02T10:44:52.897Z,2.5
2022-10-02T10:46:53.981Z,2.7
2022-10-02T10:50:56.194Z,3.3
2022-10-02T10:55:01.577Z,2.4
2022-10-02T10:57:02.670Z,2.2
2022-10-02T10:59:03.733Z,2.2
2022-10-02T11:01:04.915Z,2.1
2022-10-02T11:03:05.949Z,2.3
2022-10-02T11:05:07.092Z,2.1
2022-10-02T11:07:08.156Z,2.1
2022-10-02T11:09:12.449Z,2.6
2022-10-02T11:11:13.554Z,2.5
2022-10-02T11:13:14.647Z,2
2022-10-02T11:15:15.755Z,1.6
2022-10-02T11:17:16.842Z,2.5
2022-10-02T11:19:21.516Z,3.7
2022-10-02T11:21:19.052Z,1.5
2022-10-02T11:23:23.326Z,2.8
2022-10-02T11:25:24.438Z,2.5
2022-10-02T11:27:25.550Z,2.6
2022-10-02T11:28:27.729Z,2.8
2022-10-02T11:30:28.764Z,3.6
2022-10-02T11:32:29.862Z,1.3
2022-10-02T11:34:30.952Z,2.6
2022-10-02T11:36:35.260Z,2.3
2022-10-02T11:38:36.360Z,2
2022-10-02T11:40:37.456Z,2.4
2022-10-02T11:42:38.549Z,1.6
2022-10-02T11:44:39.645Z,2.4
2022-10-02T11:46:40.755Z,2.1
2022-10-02T11:50:46.146Z,2
2022-10-02T11:52:48.399Z,4.1
2022-10-02T11:54:48.365Z,1.6
2022-10-02T11:56:49.477Z,2.8
2022-10-02T12:04:57.078Z,1.2
2022-10-02T12:08:59.289Z,4.1
2022-10-02T12:13:01.515Z,2.2
2022-10-02T12:15:02.651Z,2.2
2022-10-02T12:17:03.749Z,1.5
2022-10-02T12:19:08.045Z,2.6
2022-10-02T12:21:09.157Z,3.8
2022-10-02T12:27:39.398Z,4.5
2022-10-02T12:31:44.830Z,1.9
2022-10-02T12:33:45.899Z,1.7
2022-10-02T12:37:48.122Z,2.4
2022-10-02T12:39:49.250Z,4.6
2022-10-02T12:43:51.461Z,2.6
2022-10-02T12:45:55.814Z,2.7
2022-10-02T12:47:56.860Z,2.9
2022-10-02T12:49:57.965Z,3.2
2022-10-02T12:51:59.082Z,3.2
2022-10-02T12:54:00.169Z,4
2022-10-02T13:00:07.136Z,3.7
2022-10-02T13:02:08.275Z,3.5
2022-10-02T13:18:20.220Z,2.7
2022-10-02T13:19:22.361Z,2.3
2022-10-02T13:21:23.481Z,1.7
2022-10-02T13:23:24.592Z,2.8
2022-10-02T13:25:25.700Z,3.2
2022-10-02T13:27:31.666Z,2.4
2022-10-02T13:29:31.346Z,2.3
2022-10-02T13:31:32.286Z,2.8
2022-10-02T13:33:33.341Z,1.6
2022-10-02T13:35:34.451Z,2.7
2022-10-02T13:37:35.585Z,2.9
2022-10-02T13:39:36.676Z,2.5
2022-10-02T13:45:43.236Z,2.7
2022-10-02T13:47:44.326Z,1.8
2022-10-02T13:49:45.437Z,2.8
2022-10-02T13:57:53.206Z,2.3
2022-10-02T13:59:54.300Z,1.2
2022-10-02T14:01:55.427Z,2.1
2022-10-02T14:03:56.631Z,3.2
2022-10-02T14:05:58.066Z,2.3
2022-10-02T14:07:58.782Z,1.2
2022-10-02T14:10:03.066Z,3.1
2022-10-02T14:12:04.178Z,2.4
2022-10-02T14:14:05.304Z,2.1
2022-10-02T14:15:07.447Z,1.9
2022-10-02T14:17:08.561Z,3.3
2022-10-02T14:19:09.651Z,4.1
2022-10-02T14:21:11.036Z,2
2022-10-02T14:23:15.056Z,2.9
2022-10-02T14:25:16.165Z,2.4
2022-10-02T14:27:17.284Z,2
2022-10-02T14:29:18.387Z,2.1
2022-10-02T14:31:19.588Z,2.2
2022-10-02T14:33:20.617Z,2.2
2022-10-02T14:35:21.723Z,1.7
2022-10-02T14:37:26.027Z,2.2
2022-10-02T14:39:27.116Z,2.9
2022-10-02T14:41:28.243Z,2.5
2022-10-02T14:43:29.361Z,1.9
2022-10-02T14:45:30.532Z,3.3
2022-10-02T14:47:31.585Z,2.4
2022-10-02T14:49:32.709Z,2.4
2022-10-02T14:51:37.364Z,4.6
2022-10-02T14:53:38.117Z,2.5
2022-10-02T14:55:39.238Z,2
2022-10-02T14:57:40.346Z,3.8
2022-10-02T14:59:41.460Z,3.6
2022-10-02T15:01:42.577Z,2.3
2022-10-02T15:05:48.005Z,2.9
2022-10-02T15:07:49.120Z,2.1
2022-10-02T15:09:50.207Z,1.9
2022-10-02T15:14:55.558Z,2.5
2022-10-02T15:16:56.680Z,2.7
2022-10-02T15:25:04.322Z,3.6
2022-10-02T15:29:06.649Z,3.2
2022-10-02T15:31:07.853Z,2.6
2022-10-02T15:33:11.997Z,1.9
2022-10-02T15:35:13.101Z,3.7
2022-10-02T15:37:14.251Z,3.1
2022-10-02T15:39:15.368Z,3.7
2022-10-02T15:41:16.500Z,2.9
2022-10-02T15:43:17.617Z,3.8
2022-10-02T15:45:18.746Z,1.7
2022-10-02T15:49:25.683Z,1.8
2022-10-02T15:51:26.803Z,2.5
2022-10-02T15:53:27.918Z,3
2022-10-02T15:55:29.042Z,3.5
2022-10-02T15:57:30.171Z,2.6
2022-10-02T15:59:31.325Z,3.1
2022-10-02T16:01:39.160Z,2.5
2022-10-02T16:03:36.745Z,3.7
2022-10-02T16:05:37.878Z,2.7
2022-10-02T16:08:05.968Z,3.5
2022-10-02T16:10:07.094Z,3
2022-10-02T16:12:08.414Z,2.1
2022-10-02T16:14:12.504Z,2.7
2022-10-02T16:16:13.719Z,3
2022-10-02T16:18:14.767Z,3.9
2022-10-02T16:20:15.909Z,4.4
2022-10-02T16:22:18.025Z,3.2
2022-10-02T16:24:18.199Z,3
2022-10-02T16:26:19.337Z,5
2022-10-02T16:32:25.946Z,3.9
2022-10-02T16:34:27.074Z,4.1
2022-10-02T16:36:28.218Z,4.3
2022-10-02T16:40:30.476Z,4.2
2022-10-02T16:42:34.774Z,5.1
2022-10-02T16:44:35.930Z,5.1
2022-10-02T16:46:37.415Z,5.4
2022-10-02T16:48:38.220Z,3.9
2022-10-02T16:50:42.280Z,4.1
2022-10-02T16:52:40.484Z,4.5
2022-10-02T16:54:41.639Z,5.4
2022-10-02T16:56:45.946Z,5.2
2022-10-02T16:58:47.077Z,2.7
2022-10-02T17:00:48.296Z,8
2022-10-02T17:02:15.911Z,6
2022-10-02T17:03:51.580Z,6.1
2022-10-02T17:05:52.688Z,7.9
2022-10-02T17:07:53.821Z,4
2022-10-02T17:09:58.277Z,7.9
2022-10-02T17:11:59.425Z,4.1
2022-10-02T17:14:00.577Z,4.2
2022-10-02T17:16:01.934Z,4.6
2022-10-02T17:18:02.940Z,3.9
2022-10-02T17:20:04.081Z,6
2022-10-02T17:22:05.236Z,5.8
2022-10-02T17:24:09.773Z,7
2022-10-02T17:26:11.044Z,7
2022-10-02T17:28:12.369Z,6.1
2022-10-02T17:30:13.428Z,4.7
2022-10-02T17:32:14.598Z,5.4
2022-10-02T17:34:15.843Z,9.2
2022-10-02T17:36:17.082Z,4.9
2022-10-02T17:42:23.926Z,5
2022-10-02T17:44:25.185Z,7.6
2022-10-02T17:46:26.461Z,5.8
2022-10-02T17:48:27.715Z,5.8
2022-10-02T17:50:28.986Z,7.8
2022-10-02T17:52:33.399Z,3.5
2022-10-02T17:54:34.672Z,5.2
2022-10-02T17:56:35.918Z,4.8
2022-10-02T17:57:38.179Z,4.2
2022-10-02T17:59:39.337Z,5.1
2022-10-02T18:01:40.698Z,3.7
2022-10-02T18:03:41.849Z,5
2022-10-02T18:05:46.386Z,4.3
2022-10-02T18:07:47.641Z,5.5
2022-10-02T18:09:48.899Z,3.9
2022-10-02T18:11:50.136Z,5.4
2022-10-02T18:13:53.095Z,6.8
2022-10-02T18:15:52.531Z,4.4
2022-10-02T18:17:53.785Z,4.9
2022-10-02T18:19:58.336Z,6.8
2022-10-02T18:21:59.600Z,6.1
2022-10-02T18:24:00.829Z,5.9
2022-10-02T18:26:02.096Z,4.6
2022-10-02T18:30:04.594Z,4
2022-10-02T18:32:05.926Z,5.3
2022-10-02T18:34:10.398Z,5.4
2022-10-02T18:36:11.666Z,4.2
2022-10-02T18:40:14.227Z,5.2
2022-10-02T18:42:15.379Z,4.9
2022-10-02T18:44:16.636Z,6.7
2022-10-02T18:46:17.971Z,5.2
2022-10-02T18:48:22.434Z,5.6
2022-10-02T18:50:23.707Z,5.7
2022-10-02T18:52:24.954Z,5.2
2022-10-02T18:53:27.201Z,5.7
2022-10-02T18:55:28.487Z,3.7
2022-10-02T18:57:29.738Z,4.9
2022-10-02T18:59:31.014Z,5
2022-10-02T19:01:35.741Z,8.1
2022-10-02T19:03:36.766Z,4.5
2022-10-02T19:05:38.067Z,4.8
2022-10-02T19:07:39.307Z,6.2
2022-10-02T19:09:40.572Z,3.4
2022-10-02T19:11:41.805Z,4.8
2022-10-02T19:13:43.066Z,4.5
2022-10-02T19:19:50.120Z,4.1
2022-10-02T19:23:52.684Z,7.1
2022-10-02T19:25:53.907Z,5.6
2022-10-02T19:29:59.699Z,6.8
2022-10-02T19:32:01.003Z,13.5
2022-10-02T19:34:02.202Z,44.1
2022-10-02T19:36:03.465Z,21.2
2022-10-02T19:40:08.964Z,5.6
2022-10-02T19:42:07.210Z,4.6
2022-10-02T19:44:11.760Z,6.2
2022-10-02T19:46:13.063Z,5.2
2022-10-02T19:48:14.272Z,5.9
2022-10-02T19:52:43.885Z,5.3
2022-10-02T19:54:45.128Z,7.2
2022-10-02T19:56:49.648Z,6.6
2022-10-02T20:00:52.200Z,5.7
2022-10-02T20:02:53.418Z,5.1
2022-10-02T20:04:54.656Z,6.1
2022-10-02T20:06:55.929Z,4.8
2022-10-02T20:08:57.163Z,4.3
2022-10-02T20:11:01.869Z,5.7
2022-10-02T20:15:04.196Z,4
2022-10-02T20:17:05.458Z,5.7
2022-10-02T20:19:06.709Z,5.2
2022-10-02T20:21:07.959Z,4.7
2022-10-02T20:23:09.223Z,6.2
2022-10-02T20:27:14.988Z,3.8
2022-10-02T20:29:16.226Z,4.4
2022-10-02T20:31:17.529Z,5.4
2022-10-02T20:33:18.759Z,3.9
2022-10-02T20:35:19.990Z,3.9
2022-10-02T20:37:21.254Z,6
2022-10-02T20:41:27.039Z,3.8
2022-10-02T20:43:28.294Z,4.6
2022-10-02T20:44:30.571Z,6.6
2022-10-02T20:46:31.812Z,4.8
2022-10-02T20:48:55.621Z,5.2
2022-10-02T20:52:38.883Z,3.8
2022-10-02T20:54:40.149Z,4.4
2022-10-02T20:56:41.397Z,3.4
2022-10-02T20:58:42.637Z,3.8
2022-10-02T21:00:44.117Z,3.5
2022-10-02T21:04:46.420Z,4
2022-10-02T21:06:50.944Z,5.5
2022-10-02T21:08:52.198Z,5.5
2022-10-02T21:10:53.431Z,4.4
2022-10-02T21:16:57.225Z,4
2022-10-02T21:18:58.468Z,2.7
2022-10-02T21:27:06.749Z,4.9
2022-10-02T21:29:07.998Z,3.5
2022-10-02T21:33:10.517Z,2.4
2022-10-02T21:35:16.569Z,3.2
2022-10-02T21:37:17.774Z,2.4
2022-10-02T21:39:19.027Z,2.8
2022-10-02T21:40:21.302Z,2.6
2022-10-02T21:42:22.542Z,2.8
2022-10-02T21:44:23.824Z,2.8
2022-10-02T21:46:25.124Z,2.4
2022-10-02T21:48:29.582Z,2.6
2022-10-02T21:50:30.851Z,3.8
2022-10-02T21:52:32.148Z,3
2022-10-02T21:54:33.388Z,3.4
2022-10-02T21:58:35.896Z,3.2
2022-10-02T22:00:37.164Z,3.3
2022-10-02T22:02:41.643Z,3.7
2022-10-02T22:04:42.907Z,2.6
2022-10-02T22:06:44.206Z,2.2
2022-10-02T22:10:46.709Z,2.6
2022-10-02T22:12:47.955Z,3.1
2022-10-02T22:14:49.269Z,2.9
2022-10-02T22:16:53.761Z,4.7
2022-10-02T22:18:54.997Z,2.2
2022-10-02T22:22:57.532Z,2.8
2022-10-02T22:24:58.775Z,3.3
2022-10-02T22:27:00.033Z,2.5
2022-10-02T22:29:01.266Z,4.1
2022-10-02T22:31:05.880Z,3.5
2022-10-02T22:33:07.049Z,3.1
2022-10-02T22:35:08.303Z,3.5
2022-10-02T22:38:11.821Z,3.6
2022-10-02T22:40:13.072Z,2.3
2022-10-02T22:42:14.325Z,3.2
2022-10-02T22:44:18.858Z,3.1
2022-10-02T22:46:20.141Z,3.4
2022-10-02T22:48:21.356Z,4.9
2022-10-02T22:50:22.604Z,3.1
2022-10-02T22:52:23.840Z,5.7
2022-10-02T22:54:25.120Z,6.9
2022-10-02T22:56:26.328Z,3
2022-10-02T22:58:30.848Z,4.5
2022-10-02T23:00:32.112Z,3.3
2022-10-02T23:02:33.483Z,3.4
2022-10-02T23:04:34.605Z,4
2022-10-02T23:06:35.847Z,2.6
2022-10-02T23:08:37.131Z,3.3
2022-10-02T23:10:38.377Z,6.5
2022-10-02T23:12:42.906Z,4.1
2022-10-02T23:14:44.175Z,3.6
2022-10-02T23:16:45.416Z,2.6
2022-10-02T23:18:46.672Z,3.5
2022-10-02T23:20:47.933Z,4.2
2022-10-02T23:22:49.209Z,3.5
2022-10-02T23:30:57.524Z,4.2
2022-10-02T23:33:25.865Z,4.5
2022-10-02T23:35:27.133Z,3.5
2022-10-02T23:37:28.386Z,5.6
2022-10-02T23:45:36.631Z,3.7
2022-10-02T23:47:37.931Z,5.9
2022-10-02T23:57:47.452Z,4.5
2022-10-02T23:59:48.698Z,4
